sensor_id;sensor_type;location;lat;lon;timestamp;temperature;humidity
77100;SHT31;66602;48.922;2.414;2023-04-06T00:00:51;9.66;52.22
77100;SHT31;66602;48.922;2.414;2023-04-06T00:03:18;9.60;52.63
77100;SHT31;66602;48.922;2.414;2023-04-06T00:05:44;9.56;52.28
77100;SHT31;66602;48.922;2.414;2023-04-06T00:08:10;9.57;52.60
77100;SHT31;66602;48.922;2.414;2023-04-06T00:10:36;9.53;52.52
77100;SHT31;66602;48.922;2.414;2023-04-06T00:13:02;9.57;52.44
77100;SHT31;66602;48.922;2.414;2023-04-06T00:15:27;9.56;52.11
77100;SHT31;66602;48.922;2.414;2023-04-06T00:17:53;9.55;52.65
77100;SHT31;66602;48.922;2.414;2023-04-06T00:20:18;9.52;52.82
77100;SHT31;66602;48.922;2.414;2023-04-06T00:22:44;9.49;53.14
77100;SHT31;66602;48.922;2.414;2023-04-06T00:25:10;9.40;53.27
77100;SHT31;66602;48.922;2.414;2023-04-06T00:27:37;9.39;52.73
77100;SHT31;66602;48.922;2.414;2023-04-06T00:30:06;9.43;52.30
77100;SHT31;66602;48.922;2.414;2023-04-06T00:32:32;9.43;52.77
77100;SHT31;66602;48.922;2.414;2023-04-06T00:34:58;9.46;52.38
77100;SHT31;66602;48.922;2.414;2023-04-06T00:37:23;9.52;52.20
77100;SHT31;66602;48.922;2.414;2023-04-06T00:39:49;9.55;52.27
77100;SHT31;66602;48.922;2.414;2023-04-06T00:42:17;9.49;52.33
77100;SHT31;66602;48.922;2.414;2023-04-06T00:44:43;9.50;53.10
77100;SHT31;66602;48.922;2.414;2023-04-06T00:47:09;9.56;53.15
77100;SHT31;66602;48.922;2.414;2023-04-06T00:49:35;9.57;53.08
77100;SHT31;66602;48.922;2.414;2023-04-06T00:52:01;9.57;52.90
77100;SHT31;66602;48.922;2.414;2023-04-06T00:54:28;9.60;52.96
77100;SHT31;66602;48.922;2.414;2023-04-06T00:56:54;9.59;52.63
77100;SHT31;66602;48.922;2.414;2023-04-06T00:59:20;9.60;53.31
77100;SHT31;66602;48.922;2.414;2023-04-06T01:01:46;9.63;53.28
77100;SHT31;66602;48.922;2.414;2023-04-06T01:04:11;9.66;53.28
77100;SHT31;66602;48.922;2.414;2023-04-06T01:06:37;9.69;53.26
77100;SHT31;66602;48.922;2.414;2023-04-06T01:09:02;9.72;53.27
77100;SHT31;66602;48.922;2.414;2023-04-06T01:11:28;9.69;52.96
77100;SHT31;66602;48.922;2.414;2023-04-06T01:13:55;9.65;53.12
77100;SHT31;66602;48.922;2.414;2023-04-06T01:16:20;9.63;53.98
77100;SHT31;66602;48.922;2.414;2023-04-06T01:18:46;9.60;54.25
77100;SHT31;66602;48.922;2.414;2023-04-06T01:21:11;9.62;53.87
77100;SHT31;66602;48.922;2.414;2023-04-06T01:23:44;9.59;54.22
77100;SHT31;66602;48.922;2.414;2023-04-06T01:26:10;9.57;54.16
77100;SHT31;66602;48.922;2.414;2023-04-06T01:28:36;9.57;53.84
77100;SHT31;66602;48.922;2.414;2023-04-06T01:31:03;9.55;54.37
77100;SHT31;66602;48.922;2.414;2023-04-06T01:33:28;9.62;54.73
77100;SHT31;66602;48.922;2.414;2023-04-06T01:35:54;9.66;54.93
77100;SHT31;66602;48.922;2.414;2023-04-06T01:38:20;9.72;55.15
77100;SHT31;66602;48.922;2.414;2023-04-06T01:40:45;9.74;54.75
77100;SHT31;66602;48.922;2.414;2023-04-06T01:43:11;9.74;54.74
77100;SHT31;66602;48.922;2.414;2023-04-06T01:45:37;9.80;55.36
77100;SHT31;66602;48.922;2.414;2023-04-06T01:48:02;9.86;55.44
77100;SHT31;66602;48.922;2.414;2023-04-06T01:50:28;10.04;56.00
77100;SHT31;66602;48.922;2.414;2023-04-06T01:52:53;10.10;55.84
77100;SHT31;66602;48.922;2.414;2023-04-06T01:55:18;10.17;55.79
77100;SHT31;66602;48.922;2.414;2023-04-06T01:57:44;10.14;56.32
77100;SHT31;66602;48.922;2.414;2023-04-06T02:00:10;10.01;57.19
77100;SHT31;66602;48.922;2.414;2023-04-06T02:02:36;9.91;57.67
77100;SHT31;66602;48.922;2.414;2023-04-06T02:05:02;9.83;58.23
77100;SHT31;66602;48.922;2.414;2023-04-06T02:07:27;9.73;59.12
77100;SHT31;66602;48.922;2.414;2023-04-06T02:09:54;9.62;59.22
77100;SHT31;66602;48.922;2.414;2023-04-06T02:12:20;9.57;59.20
77100;SHT31;66602;48.922;2.414;2023-04-06T02:14:46;9.62;59.07
77100;SHT31;66602;48.922;2.414;2023-04-06T02:17:11;9.77;59.26
77100;SHT31;66602;48.922;2.414;2023-04-06T02:19:37;9.77;59.30
77100;SHT31;66602;48.922;2.414;2023-04-06T02:22:02;9.73;59.96
77100;SHT31;66602;48.922;2.414;2023-04-06T02:24:28;9.74;59.95
77100;SHT31;66602;48.922;2.414;2023-04-06T02:26:53;9.74;60.29
77100;SHT31;66602;48.922;2.414;2023-04-06T02:29:19;9.82;60.07
77100;SHT31;66602;48.922;2.414;2023-04-06T02:31:45;9.76;59.79
77100;SHT31;66602;48.922;2.414;2023-04-06T02:34:11;9.76;60.08
77100;SHT31;66602;48.922;2.414;2023-04-06T02:36:45;9.72;60.36
77100;SHT31;66602;48.922;2.414;2023-04-06T02:39:11;9.69;60.02
77100;SHT31;66602;48.922;2.414;2023-04-06T02:41:38;9.69;60.21
77100;SHT31;66602;48.922;2.414;2023-04-06T02:44:04;9.65;60.52
77100;SHT31;66602;48.922;2.414;2023-04-06T02:46:29;9.60;60.68
77100;SHT31;66602;48.922;2.414;2023-04-06T02:48:55;9.65;60.82
77100;SHT31;66602;48.922;2.414;2023-04-06T02:51:21;9.67;60.75
77100;SHT31;66602;48.922;2.414;2023-04-06T02:53:47;9.67;60.81
77100;SHT31;66602;48.922;2.414;2023-04-06T02:56:12;9.70;61.15
77100;SHT31;66602;48.922;2.414;2023-04-06T02:58:37;9.66;61.05
77100;SHT31;66602;48.922;2.414;2023-04-06T03:01:03;9.59;60.98
77100;SHT31;66602;48.922;2.414;2023-04-06T03:03:29;9.53;60.94
77100;SHT31;66602;48.922;2.414;2023-04-06T03:05:55;9.46;61.17
77100;SHT31;66602;48.922;2.414;2023-04-06T03:08:23;9.38;61.67
77100;SHT31;66602;48.922;2.414;2023-04-06T03:10:49;9.31;62.01
77100;SHT31;66602;48.922;2.414;2023-04-06T03:13:15;9.29;61.97
77100;SHT31;66602;48.922;2.414;2023-04-06T03:15:40;9.43;60.72
77100;SHT31;66602;48.922;2.414;2023-04-06T03:18:06;9.52;61.09
77100;SHT31;66602;48.922;2.414;2023-04-06T03:20:32;9.65;60.61
77100;SHT31;66602;48.922;2.414;2023-04-06T03:22:58;9.84;60.12
77100;SHT31;66602;48.922;2.414;2023-04-06T03:25:23;10.07;59.59
77100;SHT31;66602;48.922;2.414;2023-04-06T03:27:49;10.17;58.51
77100;SHT31;66602;48.922;2.414;2023-04-06T03:30:15;10.13;59.21
77100;SHT31;66602;48.922;2.414;2023-04-06T03:32:43;9.98;59.89
77100;SHT31;66602;48.922;2.414;2023-04-06T03:35:09;9.93;59.73
77100;SHT31;66602;48.922;2.414;2023-04-06T03:37:34;9.93;59.75
77100;SHT31;66602;48.922;2.414;2023-04-06T03:40:00;9.84;60.38
77100;SHT31;66602;48.922;2.414;2023-04-06T03:42:26;9.94;59.61
77100;SHT31;66602;48.922;2.414;2023-04-06T03:44:52;10.13;58.84
77100;SHT31;66602;48.922;2.414;2023-04-06T03:47:17;10.10;59.50
77100;SHT31;66602;48.922;2.414;2023-04-06T03:49:43;10.00;59.63
77100;SHT31;66602;48.922;2.414;2023-04-06T03:52:09;9.94;59.76
77100;SHT31;66602;48.922;2.414;2023-04-06T03:54:34;9.91;59.46
77100;SHT31;66602;48.922;2.414;2023-04-06T03:57:00;9.94;59.14
77100;SHT31;66602;48.922;2.414;2023-04-06T03:59:26;9.93;59.11
77100;SHT31;66602;48.922;2.414;2023-04-06T04:01:51;10.00;58.98
77100;SHT31;66602;48.922;2.414;2023-04-06T04:04:17;10.03;58.99
77100;SHT31;66602;48.922;2.414;2023-04-06T04:06:42;10.00;58.73
77100;SHT31;66602;48.922;2.414;2023-04-06T04:09:08;10.00;58.80
77100;SHT31;66602;48.922;2.414;2023-04-06T04:11:33;9.98;58.54
77100;SHT31;66602;48.922;2.414;2023-04-06T04:13:59;10.01;58.63
77100;SHT31;66602;48.922;2.414;2023-04-06T04:16:25;9.98;58.41
77100;SHT31;66602;48.922;2.414;2023-04-06T04:18:50;9.97;59.06
77100;SHT31;66602;48.922;2.414;2023-04-06T04:21:16;9.97;59.59
77100;SHT31;66602;48.922;2.414;2023-04-06T04:23:41;9.95;59.43
77100;SHT31;66602;48.922;2.414;2023-04-06T04:26:07;9.91;60.30
77100;SHT31;66602;48.922;2.414;2023-04-06T04:28:32;9.90;60.24
77100;SHT31;66602;48.922;2.414;2023-04-06T04:30:57;9.86;60.55
77100;SHT31;66602;48.922;2.414;2023-04-06T04:33:23;9.89;59.61
77100;SHT31;66602;48.922;2.414;2023-04-06T04:35:48;9.91;59.44
77100;SHT31;66602;48.922;2.414;2023-04-06T04:38:14;9.93;60.35
77100;SHT31;66602;48.922;2.414;2023-04-06T04:40:39;9.89;60.95
77100;SHT31;66602;48.922;2.414;2023-04-06T04:43:05;9.82;61.64
77100;SHT31;66602;48.922;2.414;2023-04-06T04:45:31;9.73;62.01
77100;SHT31;66602;48.922;2.414;2023-04-06T04:47:56;9.69;62.15
77100;SHT31;66602;48.922;2.414;2023-04-06T04:50:22;9.65;62.54
77100;SHT31;66602;48.922;2.414;2023-04-06T04:52:47;9.62;62.52
77100;SHT31;66602;48.922;2.414;2023-04-06T04:55:13;9.63;62.14
77100;SHT31;66602;48.922;2.414;2023-04-06T04:57:39;9.62;62.50
77100;SHT31;66602;48.922;2.414;2023-04-06T05:00:05;9.59;62.34
77100;SHT31;66602;48.922;2.414;2023-04-06T05:02:31;9.62;61.92
77100;SHT31;66602;48.922;2.414;2023-04-06T05:04:56;9.63;61.14
77100;SHT31;66602;48.922;2.414;2023-04-06T05:07:22;9.60;61.21
77100;SHT31;66602;48.922;2.414;2023-04-06T05:09:48;9.60;61.61
77100;SHT31;66602;48.922;2.414;2023-04-06T05:12:14;9.57;61.81
77100;SHT31;66602;48.922;2.414;2023-04-06T05:14:41;9.63;61.45
77100;SHT31;66602;48.922;2.414;2023-04-06T05:17:07;9.67;60.78
77100;SHT31;66602;48.922;2.414;2023-04-06T05:19:32;9.76;60.07
77100;SHT31;66602;48.922;2.414;2023-04-06T05:21:58;9.80;60.53
77100;SHT31;66602;48.922;2.414;2023-04-06T05:24:23;9.80;60.81
77100;SHT31;66602;48.922;2.414;2023-04-06T05:26:49;9.87;61.03
77100;SHT31;66602;48.922;2.414;2023-04-06T05:29:14;9.93;60.45
77100;SHT31;66602;48.922;2.414;2023-04-06T05:31:40;10.03;59.47
77100;SHT31;66602;48.922;2.414;2023-04-06T05:34:06;9.98;60.28
77100;SHT31;66602;48.922;2.414;2023-04-06T05:36:31;10.03;60.88
77100;SHT31;66602;48.922;2.414;2023-04-06T05:38:57;9.95;61.88
77100;SHT31;66602;48.922;2.414;2023-04-06T05:41:23;9.87;63.25
77100;SHT31;66602;48.922;2.414;2023-04-06T05:43:49;9.79;63.97
77100;SHT31;66602;48.922;2.414;2023-04-06T05:46:15;9.63;65.36
77100;SHT31;66602;48.922;2.414;2023-04-06T05:48:40;9.50;65.22
77100;SHT31;66602;48.922;2.414;2023-04-06T05:51:06;9.39;65.75
77100;SHT31;66602;48.922;2.414;2023-04-06T05:53:32;9.28;65.62
77100;SHT31;66602;48.922;2.414;2023-04-06T05:56:01;9.11;67.91
77100;SHT31;66602;48.922;2.414;2023-04-06T05:58:27;9.03;68.11
77100;SHT31;66602;48.922;2.414;2023-04-06T06:01:01;9.01;69.58
77100;SHT31;66602;48.922;2.414;2023-04-06T06:03:28;9.01;68.43
77100;SHT31;66602;48.922;2.414;2023-04-06T06:06:00;9.01;67.78
77100;SHT31;66602;48.922;2.414;2023-04-06T06:08:26;9.04;67.26
77100;SHT31;66602;48.922;2.414;2023-04-06T06:10:51;9.05;66.60
77100;SHT31;66602;48.922;2.414;2023-04-06T06:13:17;9.04;66.57
77100;SHT31;66602;48.922;2.414;2023-04-06T06:15:42;9.03;68.04
77100;SHT31;66602;48.922;2.414;2023-04-06T06:18:07;9.10;67.35
77100;SHT31;66602;48.922;2.414;2023-04-06T06:20:33;9.28;65.46
77100;SHT31;66602;48.922;2.414;2023-04-06T06:22:58;9.36;65.88
77100;SHT31;66602;48.922;2.414;2023-04-06T06:25:24;9.43;66.70
77100;SHT31;66602;48.922;2.414;2023-04-06T06:27:50;9.39;67.49
77100;SHT31;66602;48.922;2.414;2023-04-06T06:30:15;9.26;68.79
77100;SHT31;66602;48.922;2.414;2023-04-06T06:32:41;9.12;69.38
77100;SHT31;66602;48.922;2.414;2023-04-06T06:35:07;9.08;68.51
77100;SHT31;66602;48.922;2.414;2023-04-06T06:37:32;9.08;68.81
77100;SHT31;66602;48.922;2.414;2023-04-06T06:39:58;9.11;69.70
77100;SHT31;66602;48.922;2.414;2023-04-06T06:42:24;9.18;70.38
77100;SHT31;66602;48.922;2.414;2023-04-06T06:44:49;9.26;70.57
77100;SHT31;66602;48.922;2.414;2023-04-06T06:47:15;9.32;70.44
77100;SHT31;66602;48.922;2.414;2023-04-06T06:49:40;9.40;70.45
77100;SHT31;66602;48.922;2.414;2023-04-06T06:52:06;9.46;71.19
77100;SHT31;66602;48.922;2.414;2023-04-06T06:54:31;9.56;70.34
77100;SHT31;66602;48.922;2.414;2023-04-06T06:56:57;9.62;69.74
77100;SHT31;66602;48.922;2.414;2023-04-06T06:59:22;9.77;69.97
77100;SHT31;66602;48.922;2.414;2023-04-06T07:01:49;9.95;67.88
77100;SHT31;66602;48.922;2.414;2023-04-06T07:04:15;10.07;67.21
77100;SHT31;66602;48.922;2.414;2023-04-06T07:06:40;10.11;67.19
77100;SHT31;66602;48.922;2.414;2023-04-06T07:09:06;10.08;67.21
77100;SHT31;66602;48.922;2.414;2023-04-06T07:11:31;10.15;65.33
77100;SHT31;66602;48.922;2.414;2023-04-06T07:13:57;10.18;64.85
77100;SHT31;66602;48.922;2.414;2023-04-06T07:16:22;10.28;64.34
77100;SHT31;66602;48.922;2.414;2023-04-06T07:18:48;10.44;63.32
77100;SHT31;66602;48.922;2.414;2023-04-06T07:21:14;10.51;62.63
77100;SHT31;66602;48.922;2.414;2023-04-06T07:23:39;10.58;62.31
77100;SHT31;66602;48.922;2.414;2023-04-06T07:26:05;10.62;63.09
77100;SHT31;66602;48.922;2.414;2023-04-06T07:28:30;10.65;63.02
77100;SHT31;66602;48.922;2.414;2023-04-06T07:30:56;10.66;63.54
77100;SHT31;66602;48.922;2.414;2023-04-06T07:33:21;10.62;63.20
77100;SHT31;66602;48.922;2.414;2023-04-06T07:35:47;10.66;63.11
77100;SHT31;66602;48.922;2.414;2023-04-06T07:38:13;10.65;63.49
77100;SHT31;66602;48.922;2.414;2023-04-06T07:40:38;10.65;63.02
77100;SHT31;66602;48.922;2.414;2023-04-06T07:43:04;10.63;63.69
77100;SHT31;66602;48.922;2.414;2023-04-06T07:45:30;10.63;63.47
77100;SHT31;66602;48.922;2.414;2023-04-06T07:47:56;10.56;64.57
77100;SHT31;66602;48.922;2.414;2023-04-06T07:50:21;10.55;64.78
77100;SHT31;66602;48.922;2.414;2023-04-06T07:52:47;10.76;64.75
77100;SHT31;66602;48.922;2.414;2023-04-06T07:55:12;11.03;64.61
77100;SHT31;66602;48.922;2.414;2023-04-06T07:57:38;11.26;63.71
77100;SHT31;66602;48.922;2.414;2023-04-06T08:00:04;11.45;64.11
77100;SHT31;66602;48.922;2.414;2023-04-06T08:02:31;11.44;62.82
77100;SHT31;66602;48.922;2.414;2023-04-06T08:04:57;11.41;63.10
77100;SHT31;66602;48.922;2.414;2023-04-06T08:07:23;11.65;62.78
77100;SHT31;66602;48.922;2.414;2023-04-06T08:09:48;12.02;62.41
77100;SHT31;66602;48.922;2.414;2023-04-06T08:12:14;11.82;62.95
77100;SHT31;66602;48.922;2.414;2023-04-06T08:14:40;11.96;62.54
77100;SHT31;66602;48.922;2.414;2023-04-06T08:17:05;12.15;63.45
77100;SHT31;66602;48.922;2.414;2023-04-06T08:19:31;12.28;63.85
77100;SHT31;66602;48.922;2.414;2023-04-06T08:21:57;12.65;62.40
77100;SHT31;66602;48.922;2.414;2023-04-06T08:24:23;14.28;58.33
77100;SHT31;66602;48.922;2.414;2023-04-06T08:26:48;15.54;54.59
77100;SHT31;66602;48.922;2.414;2023-04-06T08:29:15;15.57;54.26
77100;SHT31;66602;48.922;2.414;2023-04-06T08:31:41;14.82;56.18
77100;SHT31;66602;48.922;2.414;2023-04-06T08:34:06;14.25;57.96
77100;SHT31;66602;48.922;2.414;2023-04-06T08:36:32;13.58;60.29
77100;SHT31;66602;48.922;2.414;2023-04-06T08:38:59;13.42;60.95
77100;SHT31;66602;48.922;2.414;2023-04-06T08:41:25;13.10;62.02
77100;SHT31;66602;48.922;2.414;2023-04-06T08:44:00;12.71;62.97
77100;SHT31;66602;48.922;2.414;2023-04-06T08:46:28;12.64;63.36
77100;SHT31;66602;48.922;2.414;2023-04-06T08:49:02;12.54;63.38
77100;SHT31;66602;48.922;2.414;2023-04-06T08:51:29;12.32;64.44
77100;SHT31;66602;48.922;2.414;2023-04-06T08:53:57;12.40;64.47
77100;SHT31;66602;48.922;2.414;2023-04-06T08:56:26;12.39;64.63
77100;SHT31;66602;48.922;2.414;2023-04-06T08:58:53;11.61;66.54
77100;SHT31;66602;48.922;2.414;2023-04-06T09:01:27;11.88;66.03
77100;SHT31;66602;48.922;2.414;2023-04-06T09:03:57;11.98;65.69
77100;SHT31;66602;48.922;2.414;2023-04-06T09:06:22;11.74;66.07
77100;SHT31;66602;48.922;2.414;2023-04-06T09:08:48;11.61;66.60
77100;SHT31;66602;48.922;2.414;2023-04-06T09:11:14;11.61;66.87
77100;SHT31;66602;48.922;2.414;2023-04-06T09:13:52;11.51;66.90
77100;SHT31;66602;48.922;2.414;2023-04-06T09:16:19;11.68;66.43
77100;SHT31;66602;48.922;2.414;2023-04-06T09:18:45;11.81;66.88
77100;SHT31;66602;48.922;2.414;2023-04-06T09:21:11;12.08;65.63
77100;SHT31;66602;48.922;2.414;2023-04-06T09:23:37;11.98;67.89
77100;SHT31;66602;48.922;2.414;2023-04-06T09:26:11;11.43;70.91
77100;SHT31;66602;48.922;2.414;2023-04-06T09:28:48;10.93;75.58
77100;SHT31;66602;48.922;2.414;2023-04-06T09:31:16;10.54;77.08
77100;SHT31;66602;48.922;2.414;2023-04-06T09:33:44;10.34;77.70
77100;SHT31;66602;48.922;2.414;2023-04-06T09:36:11;10.40;77.16
77100;SHT31;66602;48.922;2.414;2023-04-06T09:38:52;10.45;76.84
77100;SHT31;66602;48.922;2.414;2023-04-06T09:41:36;10.46;76.57
77100;SHT31;66602;48.922;2.414;2023-04-06T09:44:06;10.63;76.96
77100;SHT31;66602;48.922;2.414;2023-04-06T09:46:34;10.77;76.58
77100;SHT31;66602;48.922;2.414;2023-04-06T09:49:03;11.03;75.64
77100;SHT31;66602;48.922;2.414;2023-04-06T09:51:40;11.37;74.75
77100;SHT31;66602;48.922;2.414;2023-04-06T09:54:07;11.53;73.88
77100;SHT31;66602;48.922;2.414;2023-04-06T09:56:46;11.20;75.40
77100;SHT31;66602;48.922;2.414;2023-04-06T10:02:05;10.63;78.01
77100;SHT31;66602;48.922;2.414;2023-04-06T10:04:43;10.56;78.58
77100;SHT31;66602;48.922;2.414;2023-04-06T10:07:11;10.51;77.79
77100;SHT31;66602;48.922;2.414;2023-04-06T10:09:38;10.45;77.76
77100;SHT31;66602;48.922;2.414;2023-04-06T10:12:06;10.55;77.84
77100;SHT31;66602;48.922;2.414;2023-04-06T10:14:35;10.65;76.82
77100;SHT31;66602;48.922;2.414;2023-04-06T10:17:03;10.75;77.00
77100;SHT31;66602;48.922;2.414;2023-04-06T10:19:38;10.91;76.84
77100;SHT31;66602;48.922;2.414;2023-04-06T10:22:05;11.10;76.05
77100;SHT31;66602;48.922;2.414;2023-04-06T10:24:31;11.20;75.70
77100;SHT31;66602;48.922;2.414;2023-04-06T10:27:03;11.20;74.87
77100;SHT31;66602;48.922;2.414;2023-04-06T10:29:43;11.09;75.97
77100;SHT31;66602;48.922;2.414;2023-04-06T10:32:10;11.28;76.76
77100;SHT31;66602;48.922;2.414;2023-04-06T10:34:35;11.38;77.33
77100;SHT31;66602;48.922;2.414;2023-04-06T10:37:21;12.22;73.03
77100;SHT31;66602;48.922;2.414;2023-04-06T10:39:53;12.32;72.55
77100;SHT31;66602;48.922;2.414;2023-04-06T10:42:38;11.85;73.44
77100;SHT31;66602;48.922;2.414;2023-04-06T10:45:18;11.43;75.12
77100;SHT31;66602;48.922;2.414;2023-04-06T10:47:43;11.55;75.77
77100;SHT31;66602;48.922;2.414;2023-04-06T10:50:13;11.41;75.30
77100;SHT31;66602;48.922;2.414;2023-04-06T10:52:39;11.50;75.20
77100;SHT31;66602;48.922;2.414;2023-04-06T10:55:05;11.65;74.37
77100;SHT31;66602;48.922;2.414;2023-04-06T10:57:31;11.84;72.95
77100;SHT31;66602;48.922;2.414;2023-04-06T10:59:58;11.86;72.93
77100;SHT31;66602;48.922;2.414;2023-04-06T11:02:23;12.64;71.15
77100;SHT31;66602;48.922;2.414;2023-04-06T11:04:58;13.23;67.65
77100;SHT31;66602;48.922;2.414;2023-04-06T11:07:27;12.81;68.35
77100;SHT31;66602;48.922;2.414;2023-04-06T11:09:56;12.37;69.59
77100;SHT31;66602;48.922;2.414;2023-04-06T11:12:26;12.03;71.02
77100;SHT31;66602;48.922;2.414;2023-04-06T11:15:00;12.08;70.38
77100;SHT31;66602;48.922;2.414;2023-04-06T11:17:33;11.93;69.78
77100;SHT31;66602;48.922;2.414;2023-04-06T11:19:59;12.21;69.70
77100;SHT31;66602;48.922;2.414;2023-04-06T11:22:25;13.94;64.14
77100;SHT31;66602;48.922;2.414;2023-04-06T11:24:52;14.75;61.72
77100;SHT31;66602;48.922;2.414;2023-04-06T11:27:19;14.20;62.18
77100;SHT31;66602;48.922;2.414;2023-04-06T11:29:44;14.52;61.07
77100;SHT31;66602;48.922;2.414;2023-04-06T11:32:22;16.05;56.99
77100;SHT31;66602;48.922;2.414;2023-04-06T11:34:49;17.03;53.70
77100;SHT31;66602;48.922;2.414;2023-04-06T11:37:15;16.36;54.85
77100;SHT31;66602;48.922;2.414;2023-04-06T11:39:51;17.91;49.99
77100;SHT31;66602;48.922;2.414;2023-04-06T11:42:28;18.52;48.30
77100;SHT31;66602;48.922;2.414;2023-04-06T11:44:56;19.50;46.83
77100;SHT31;66602;48.922;2.414;2023-04-06T11:47:35;16.19;54.09
77100;SHT31;66602;48.922;2.414;2023-04-06T11:50:12;16.80;53.99
77100;SHT31;66602;48.922;2.414;2023-04-06T11:52:39;16.88;52.78
77100;SHT31;66602;48.922;2.414;2023-04-06T11:55:18;16.71;53.06
77100;SHT31;66602;48.922;2.414;2023-04-06T11:57:44;18.61;47.73
77100;SHT31;66602;48.922;2.414;2023-04-06T12:00:10;18.13;48.23
77100;SHT31;66602;48.922;2.414;2023-04-06T12:02:37;16.18;53.51
77100;SHT31;66602;48.922;2.414;2023-04-06T12:05:04;15.40;55.71
77100;SHT31;66602;48.922;2.414;2023-04-06T12:07:30;15.16;56.66
77100;SHT31;66602;48.922;2.414;2023-04-06T12:09:56;14.44;59.33
77100;SHT31;66602;48.922;2.414;2023-04-06T12:12:22;14.40;59.15
77100;SHT31;66602;48.922;2.414;2023-04-06T12:14:47;14.71;58.01
77100;SHT31;66602;48.922;2.414;2023-04-06T12:17:13;14.69;59.14
77100;SHT31;66602;48.922;2.414;2023-04-06T12:19:38;15.03;56.72
77100;SHT31;66602;48.922;2.414;2023-04-06T12:22:03;15.44;55.18
77100;SHT31;66602;48.922;2.414;2023-04-06T12:24:29;16.42;52.70
77100;SHT31;66602;48.922;2.414;2023-04-06T12:26:55;17.42;50.28
77100;SHT31;66602;48.922;2.414;2023-04-06T12:29:20;16.34;52.55
77100;SHT31;66602;48.922;2.414;2023-04-06T12:31:46;15.75;53.66
77100;SHT31;66602;48.922;2.414;2023-04-06T12:34:11;15.36;54.68
77100;SHT31;66602;48.922;2.414;2023-04-06T12:36:37;14.76;56.44
77100;SHT31;66602;48.922;2.414;2023-04-06T12:39:04;14.44;56.78
77100;SHT31;66602;48.922;2.414;2023-04-06T12:41:30;14.30;57.59
77100;SHT31;66602;48.922;2.414;2023-04-06T12:43:55;14.17;58.23
77100;SHT31;66602;48.922;2.414;2023-04-06T12:46:21;14.52;57.26
77100;SHT31;66602;48.922;2.414;2023-04-06T12:48:47;14.72;56.80
77100;SHT31;66602;48.922;2.414;2023-04-06T12:51:13;14.58;57.74
77100;SHT31;66602;48.922;2.414;2023-04-06T12:53:38;14.30;58.81
77100;SHT31;66602;48.922;2.414;2023-04-06T12:56:19;14.48;58.70
77100;SHT31;66602;48.922;2.414;2023-04-06T12:58:47;14.51;58.15
77100;SHT31;66602;48.922;2.414;2023-04-06T13:01:13;14.80;56.91
77100;SHT31;66602;48.922;2.414;2023-04-06T13:03:40;14.89;56.27
77100;SHT31;66602;48.922;2.414;2023-04-06T13:06:06;15.18;55.85
77100;SHT31;66602;48.922;2.414;2023-04-06T13:08:33;15.14;56.04
77100;SHT31;66602;48.922;2.414;2023-04-06T13:10:59;15.55;54.55
77100;SHT31;66602;48.922;2.414;2023-04-06T13:13:27;15.57;53.35
77100;SHT31;66602;48.922;2.414;2023-04-06T13:15:54;16.70;51.77
77100;SHT31;66602;48.922;2.414;2023-04-06T13:18:21;17.39;48.72
77100;SHT31;66602;48.922;2.414;2023-04-06T13:20:48;18.57;45.88
77100;SHT31;66602;48.922;2.414;2023-04-06T13:23:14;18.61;46.09
77100;SHT31;66602;48.922;2.414;2023-04-06T13:25:39;17.49;48.21
77100;SHT31;66602;48.922;2.414;2023-04-06T13:28:05;16.20;50.67
77100;SHT31;66602;48.922;2.414;2023-04-06T13:30:31;15.40;52.63
77100;SHT31;66602;48.922;2.414;2023-04-06T13:32:56;14.99;54.26
77100;SHT31;66602;48.922;2.414;2023-04-06T13:35:21;15.46;52.76
77100;SHT31;66602;48.922;2.414;2023-04-06T13:37:47;16.78;50.28
77100;SHT31;66602;48.922;2.414;2023-04-06T13:40:14;19.20;43.58
77100;SHT31;66602;48.922;2.414;2023-04-06T13:42:39;21.76;38.87
77100;SHT31;66602;48.922;2.414;2023-04-06T13:45:06;21.73;37.82
77100;SHT31;66602;48.922;2.414;2023-04-06T13:47:32;21.25;38.26
77100;SHT31;66602;48.922;2.414;2023-04-06T13:49:57;19.00;43.03
77100;SHT31;66602;48.922;2.414;2023-04-06T13:52:23;17.90;45.41
77100;SHT31;66602;48.922;2.414;2023-04-06T13:54:49;16.52;49.11
77100;SHT31;66602;48.922;2.414;2023-04-06T13:57:14;16.49;49.11
77100;SHT31;66602;48.922;2.414;2023-04-06T13:59:40;16.80;47.65
77100;SHT31;66602;48.922;2.414;2023-04-06T14:02:07;18.01;44.63
77100;SHT31;66602;48.922;2.414;2023-04-06T14:04:34;17.45;45.41
77100;SHT31;66602;48.922;2.414;2023-04-06T14:07:00;16.71;48.28
77100;SHT31;66602;48.922;2.414;2023-04-06T14:09:27;16.81;47.04
77100;SHT31;66602;48.922;2.414;2023-04-06T14:11:53;16.77;47.68
77100;SHT31;66602;48.922;2.414;2023-04-06T14:14:19;16.30;47.06
77100;SHT31;66602;48.922;2.414;2023-04-06T14:16:44;16.04;47.29
77100;SHT31;66602;48.922;2.414;2023-04-06T14:19:11;16.84;45.17
77100;SHT31;66602;48.922;2.414;2023-04-06T14:21:41;18.23;42.62
77100;SHT31;66602;48.922;2.414;2023-04-06T14:24:07;17.45;44.09
77100;SHT31;66602;48.922;2.414;2023-04-06T14:26:34;17.25;44.89
77100;SHT31;66602;48.922;2.414;2023-04-06T14:29:00;17.29;44.03
77100;SHT31;66602;48.922;2.414;2023-04-06T14:31:26;18.84;41.41
77100;SHT31;66602;48.922;2.414;2023-04-06T14:33:52;19.87;37.26
77100;SHT31;66602;48.922;2.414;2023-04-06T14:36:18;18.92;38.05
77100;SHT31;66602;48.922;2.414;2023-04-06T14:38:44;18.04;40.07
77100;SHT31;66602;48.922;2.414;2023-04-06T14:41:19;17.66;40.84
77100;SHT31;66602;48.922;2.414;2023-04-06T14:43:46;16.88;42.66
77100;SHT31;66602;48.922;2.414;2023-04-06T14:46:12;16.63;43.03
77100;SHT31;66602;48.922;2.414;2023-04-06T14:48:38;16.52;43.23
77100;SHT31;66602;48.922;2.414;2023-04-06T14:51:04;16.40;43.37
77100;SHT31;66602;48.922;2.414;2023-04-06T14:53:30;16.53;44.23
77100;SHT31;66602;48.922;2.414;2023-04-06T14:55:56;15.77;45.87
77100;SHT31;66602;48.922;2.414;2023-04-06T14:58:23;15.94;45.83
77100;SHT31;66602;48.922;2.414;2023-04-06T15:00:49;16.04;45.95
77100;SHT31;66602;48.922;2.414;2023-04-06T15:03:20;15.91;45.94
77100;SHT31;66602;48.922;2.414;2023-04-06T15:05:45;16.32;45.98
77100;SHT31;66602;48.922;2.414;2023-04-06T15:08:11;17.63;41.75
77100;SHT31;66602;48.922;2.414;2023-04-06T15:10:37;17.69;41.38
77100;SHT31;66602;48.922;2.414;2023-04-06T15:13:02;18.91;39.47
77100;SHT31;66602;48.922;2.414;2023-04-06T15:15:28;19.24;38.22
77100;SHT31;66602;48.922;2.414;2023-04-06T15:17:54;19.84;37.35
77100;SHT31;66602;48.922;2.414;2023-04-06T15:20:19;19.89;37.43
77100;SHT31;66602;48.922;2.414;2023-04-06T15:22:45;20.37;37.06
77100;SHT31;66602;48.922;2.414;2023-04-06T15:25:11;18.64;39.10
77100;SHT31;66602;48.922;2.414;2023-04-06T15:27:37;17.22;42.77
77100;SHT31;66602;48.922;2.414;2023-04-06T15:30:03;16.52;44.29
77100;SHT31;66602;48.922;2.414;2023-04-06T15:32:29;16.30;45.43
77100;SHT31;66602;48.922;2.414;2023-04-06T15:34:58;16.69;45.29
77100;SHT31;66602;48.922;2.414;2023-04-06T15:37:23;17.01;43.36